createdAt,value
2024-02-21T00:00:57.964Z,64.23
2024-02-21T00:04:20.876Z,64.16
2024-02-21T00:07:24.293Z,64.21
2024-02-21T00:10:27.261Z,64.26
2024-02-21T00:13:29.980Z,64.41
2024-02-21T00:16:32.378Z,64.39
2024-02-21T00:19:35.508Z,64.44
2024-02-21T00:22:38.083Z,64.40
2024-02-21T00:25:41.688Z,64.39
2024-02-21T00:28:44.112Z,64.41
2024-02-21T00:31:46.892Z,64.43
2024-02-21T00:34:49.235Z,64.50
2024-02-21T00:37:53.282Z,64.42
2024-02-21T00:40:55.721Z,64.42
2024-02-21T00:43:58.556Z,64.45
2024-02-21T00:47:00.788Z,64.50
2024-02-21T00:50:04.003Z,64.53
2024-02-21T00:53:07.132Z,64.46
2024-02-21T00:56:09.735Z,64.46
2024-02-21T00:59:11.863Z,64.49
2024-02-21T01:02:14.453Z,64.50
2024-02-21T01:05:16.754Z,64.41
2024-02-21T01:08:19.600Z,64.34
2024-02-21T01:11:22.093Z,64.23
2024-02-21T01:14:24.773Z,64.28
2024-02-21T01:17:27.131Z,64.27
2024-02-21T01:20:29.729Z,64.23
2024-02-21T01:23:31.855Z,64.19
2024-02-21T01:26:34.470Z,64.28
2024-02-21T01:29:37.141Z,64.32
2024-02-21T01:32:39.983Z,64.28
2024-02-21T01:35:42.390Z,64.24
2024-02-21T01:38:45.393Z,64.31
2024-02-21T01:41:47.508Z,64.34
2024-02-21T01:44:50.076Z,64.24
2024-02-21T01:47:52.366Z,64.40
2024-02-21T01:50:56.968Z,64.41
2024-02-21T01:54:00.022Z,64.37
2024-02-21T01:57:03.405Z,64.38
2024-02-21T02:00:06.765Z,64.53
2024-02-21T02:03:20.398Z,64.46
2024-02-21T02:06:23.334Z,64.40
2024-02-21T02:09:25.942Z,64.47
2024-02-21T02:12:28.285Z,64.46
2024-02-21T02:15:40.479Z,64.50
2024-02-21T02:18:42.875Z,64.41
2024-02-21T02:21:57.211Z,64.16
2024-02-21T02:24:59.846Z,64.17
2024-02-21T02:28:02.500Z,64.02
2024-02-21T02:31:05.114Z,64.13
2024-02-21T02:34:07.723Z,64.08
2024-02-21T02:37:10.041Z,64.06
2024-02-21T02:40:14.067Z,64.08
2024-02-21T02:43:16.581Z,64.05
2024-02-21T02:46:19.756Z,64.09
2024-02-21T02:49:22.469Z,64.17
2024-02-21T02:52:25.125Z,64.28
2024-02-21T02:55:28.039Z,64.32
2024-02-21T02:58:30.839Z,64.35
2024-02-21T03:01:35.720Z,64.36
2024-02-21T03:04:41.097Z,64.48
2024-02-21T03:07:44.126Z,64.50
2024-02-21T03:10:46.906Z,64.54
2024-02-21T03:13:49.221Z,64.64
2024-02-21T03:16:53.424Z,64.76
2024-02-21T03:20:01.633Z,64.69
2024-02-21T03:23:04.820Z,64.69
2024-02-21T03:26:07.113Z,64.71
2024-02-21T03:29:12.902Z,64.73
2024-02-21T03:32:15.002Z,64.79
2024-02-21T03:35:17.739Z,64.79
2024-02-21T03:38:20.552Z,64.79
2024-02-21T03:41:23.626Z,64.83
2024-02-21T03:44:25.857Z,64.84
2024-02-21T03:47:28.452Z,64.77
2024-02-21T03:50:31.035Z,64.80
2024-02-21T03:53:33.696Z,64.85
2024-02-21T03:56:39.265Z,64.88
2024-02-21T03:59:44.631Z,64.89
2024-02-21T04:02:47.963Z,64.88
2024-02-21T04:05:50.908Z,64.96
2024-02-21T04:08:53.435Z,64.95
2024-02-21T04:11:56.214Z,64.96
2024-02-21T04:14:58.326Z,64.91
2024-02-21T04:18:00.952Z,64.81
2024-02-21T04:21:03.588Z,64.81
2024-02-21T04:24:07.278Z,64.77
2024-02-21T04:27:09.953Z,64.79
2024-02-21T04:30:12.830Z,64.66
2024-02-21T04:33:15.171Z,64.58
2024-02-21T04:36:18.765Z,64.68
2024-02-21T04:39:21.128Z,64.79
2024-02-21T04:42:24.070Z,64.81
2024-02-21T04:45:26.358Z,64.82
2024-02-21T04:48:29.018Z,64.79
2024-02-21T04:51:31.212Z,64.84
2024-02-21T04:54:33.826Z,64.89
2024-02-21T04:57:36.046Z,64.98
2024-02-21T05:00:39.082Z,64.93
2024-02-21T05:03:41.453Z,64.98
2024-02-21T05:06:44.176Z,64.96
2024-02-21T05:09:47.008Z,65.04
2024-02-21T05:12:51.494Z,65.04
2024-02-21T05:15:53.705Z,65.03
2024-02-21T05:18:57.776Z,65.04
2024-02-21T05:22:02.981Z,65.01
2024-02-21T05:25:06.228Z,65.08
2024-02-21T05:28:08.644Z,65.21
2024-02-21T05:31:11.313Z,65.22
2024-02-21T05:34:13.867Z,65.22
2024-02-21T05:37:16.656Z,65.20
2024-02-21T05:40:19.031Z,65.20
2024-02-21T05:43:21.603Z,65.17
2024-02-21T05:46:24.155Z,65.37
2024-02-21T05:49:27.029Z,65.46
2024-02-21T05:52:29.258Z,65.39
2024-02-21T05:55:31.828Z,65.56
2024-02-21T05:58:34.062Z,65.40
2024-02-21T06:01:37.220Z,65.45
2024-02-21T06:04:41.059Z,65.56
2024-02-21T06:07:44.093Z,65.94
2024-02-21T06:10:46.710Z,66.10
2024-02-21T06:13:49.580Z,66.01
2024-02-21T06:16:52.411Z,65.90
2024-02-21T06:19:55.058Z,66.03
2024-02-21T06:22:57.283Z,66.02
2024-02-21T06:26:00.885Z,66.11
2024-02-21T06:29:03.976Z,66.11
2024-02-21T06:32:07.050Z,65.84
2024-02-21T06:35:09.624Z,65.63
2024-02-21T06:38:13.002Z,65.73
2024-02-21T06:41:20.340Z,65.37
2024-02-21T06:44:23.332Z,65.65
2024-02-21T06:47:26.920Z,65.82
2024-02-21T06:50:29.649Z,65.61
2024-02-21T06:53:31.835Z,65.60
2024-02-21T06:56:34.382Z,65.45
2024-02-21T06:59:36.647Z,65.42
2024-02-21T07:02:39.276Z,65.15
2024-02-21T07:05:41.611Z,65.24
2024-02-21T07:08:44.184Z,65.28
2024-02-21T07:11:47.329Z,65.33
2024-02-21T07:14:50.030Z,65.57
2024-02-21T07:17:52.283Z,65.46
2024-02-21T07:20:55.100Z,65.44
2024-02-21T07:23:57.243Z,65.61
2024-02-21T07:27:05.668Z,65.56
2024-02-21T07:30:08.465Z,65.42
2024-02-21T07:33:11.190Z,65.81
2024-02-21T07:36:13.830Z,65.86
2024-02-21T07:39:16.679Z,65.55
2024-02-21T07:42:18.865Z,65.88
2024-02-21T07:45:25.238Z,65.65
2024-02-21T07:48:28.114Z,66.00
2024-02-21T07:51:30.953Z,65.87
2024-02-21T07:54:33.248Z,66.34
2024-02-21T07:57:36.257Z,66.43
2024-02-21T08:00:38.912Z,66.86
2024-02-21T08:03:41.807Z,66.52
2024-02-21T08:06:46.678Z,66.28
2024-02-21T08:09:49.596Z,65.81
2024-02-21T08:12:51.859Z,65.90
2024-02-21T08:15:54.436Z,65.68
2024-02-21T08:18:56.880Z,66.03
2024-02-21T08:22:00.957Z,66.25
2024-02-21T08:25:03.211Z,66.58
2024-02-21T08:28:06.991Z,66.65
2024-02-21T08:31:09.068Z,66.30
2024-02-21T08:34:11.878Z,66.65
2024-02-21T08:37:14.012Z,66.66
2024-02-21T08:40:21.199Z,66.83
2024-02-21T08:43:23.595Z,66.80
2024-02-21T08:46:26.666Z,66.75
2024-02-21T08:52:35.937Z,66.55
2024-02-21T08:55:38.273Z,66.55
2024-02-21T08:58:41.665Z,66.68
2024-02-21T09:01:43.906Z,66.76
2024-02-21T09:04:46.606Z,66.50
2024-02-21T09:07:49.861Z,66.53
2024-02-21T09:10:52.800Z,66.28
2024-02-21T09:13:55.257Z,66.38
2024-02-21T09:16:58.308Z,66.31
2024-02-21T09:20:05.174Z,66.52
2024-02-21T09:23:08.972Z,66.61
2024-02-21T09:26:15.296Z,67.14
2024-02-21T09:29:18.035Z,66.95
2024-02-21T09:32:20.493Z,66.43
2024-02-21T09:35:24.816Z,66.29
2024-02-21T09:38:27.146Z,66.71
2024-02-21T09:41:29.721Z,66.42
2024-02-21T09:44:39.122Z,66.49
2024-02-21T09:47:55.711Z,66.85
2024-02-21T09:51:00.186Z,67.15
2024-02-21T09:54:15.228Z,66.81
2024-02-21T09:57:20.444Z,66.98
2024-02-21T10:00:23.482Z,67.03
2024-02-21T10:03:26.040Z,66.46
2024-02-21T10:06:29.285Z,66.21
2024-02-21T10:09:31.911Z,66.25
2024-02-21T10:12:34.842Z,65.74
2024-02-21T10:15:37.345Z,66.10
2024-02-21T10:18:40.157Z,65.78
2024-02-21T10:21:42.744Z,65.35
2024-02-21T10:24:45.876Z,64.99
2024-02-21T10:27:50.062Z,65.26
2024-02-21T10:30:53.686Z,65.01
2024-02-21T10:33:57.654Z,65.56
2024-02-21T10:37:05.418Z,65.58
2024-02-21T10:40:08.487Z,65.11
2024-02-21T10:43:14.567Z,64.81
2024-02-21T10:46:20.657Z,64.93
2024-02-21T10:49:30.649Z,64.73
2024-02-21T10:52:45.074Z,64.95
2024-02-21T10:55:57.755Z,65.19
2024-02-21T10:59:01.978Z,64.91
2024-02-21T11:02:05.652Z,64.99
2024-02-21T11:05:09.211Z,65.28
2024-02-21T11:08:12.727Z,65.42
2024-02-21T11:11:27.604Z,65.71
2024-02-21T11:14:41.105Z,65.37
2024-02-21T11:17:50.207Z,64.86
2024-02-21T11:20:53.535Z,64.64
2024-02-21T11:23:58.917Z,64.58
2024-02-21T11:27:21.170Z,64.85
2024-02-21T11:30:28.631Z,64.95
2024-02-21T11:33:31.290Z,65.15
2024-02-21T11:36:33.667Z,64.80
2024-02-21T11:39:36.597Z,64.64
2024-02-21T11:42:38.797Z,64.25
2024-02-21T11:45:41.561Z,63.89
2024-02-21T11:48:51.489Z,63.80
2024-02-21T11:52:02.320Z,63.69
2024-02-21T11:55:06.856Z,63.52
2024-02-21T11:58:09.883Z,63.73
2024-02-21T12:01:12.352Z,63.67
2024-02-21T12:04:15.229Z,63.74
2024-02-21T12:07:19.667Z,63.82
2024-02-21T12:10:22.544Z,64.14
2024-02-21T12:13:25.792Z,63.71
2024-02-21T12:16:30.473Z,64.23
2024-02-21T12:19:35.360Z,64.44
2024-02-21T12:22:38.432Z,64.49
2024-02-21T12:25:41.234Z,64.43
2024-02-21T12:28:43.907Z,64.49
2024-02-21T12:31:48.047Z,64.58
2024-02-21T12:34:54.297Z,64.25
2024-02-21T12:37:57.247Z,64.25
2024-02-21T12:41:01.843Z,64.21
2024-02-21T12:44:05.242Z,64.45
2024-02-21T12:47:09.812Z,64.37
2024-02-21T12:50:13.161Z,64.32
2024-02-21T12:53:23.190Z,64.96
2024-02-21T12:56:32.311Z,64.66
2024-02-21T12:59:34.949Z,64.68
2024-02-21T13:02:37.289Z,64.36
2024-02-21T13:05:41.157Z,64.57
2024-02-21T13:08:44.790Z,64.30
2024-02-21T13:11:47.558Z,64.30
2024-02-21T13:14:49.868Z,64.02
2024-02-21T13:17:53.211Z,64.10
2024-02-21T13:20:55.431Z,63.97
2024-02-21T13:23:58.297Z,64.07
2024-02-21T13:27:00.661Z,63.88
2024-02-21T13:30:07.050Z,64.41
2024-02-21T13:33:11.366Z,64.71
2024-02-21T13:36:13.843Z,64.51
2024-02-21T13:39:17.108Z,64.17
2024-02-21T13:42:21.479Z,63.89
2024-02-21T13:45:23.680Z,64.34
2024-02-21T13:48:27.080Z,64.28
2024-02-21T13:51:29.612Z,64.63
2024-02-21T13:54:32.182Z,64.30
2024-02-21T13:57:34.800Z,64.57
2024-02-21T14:00:37.874Z,64.71
2024-02-21T14:03:40.213Z,64.66
2024-02-21T14:06:44.885Z,64.51
2024-02-21T14:09:47.677Z,64.26
2024-02-21T14:12:50.865Z,63.99
2024-02-21T14:15:53.423Z,63.55
2024-02-21T14:18:56.186Z,63.65
2024-02-21T14:21:58.387Z,63.64
2024-02-21T14:25:01.998Z,63.44
2024-02-21T14:28:04.655Z,63.53
2024-02-21T14:31:10.620Z,63.38
2024-02-21T14:34:13.321Z,62.98
2024-02-21T14:37:16.386Z,63.11
2024-02-21T14:40:20.730Z,62.99
2024-02-21T14:43:23.707Z,62.97
2024-02-21T14:46:25.986Z,63.01
2024-02-21T14:49:30.096Z,62.92
2024-02-21T14:52:34.538Z,62.77
2024-02-21T14:55:37.556Z,62.52
2024-02-21T14:58:40.455Z,62.43
2024-02-21T15:01:43.699Z,62.39
2024-02-21T15:04:46.127Z,62.35
2024-02-21T15:07:49.232Z,62.39
2024-02-21T15:10:52.216Z,62.85
2024-02-21T15:13:55.189Z,62.77
2024-02-21T15:16:57.945Z,62.80
2024-02-21T15:20:01.838Z,62.88
2024-02-21T15:23:06.601Z,63.07
2024-02-21T15:26:10.169Z,62.99
2024-02-21T15:29:12.908Z,63.00
2024-02-21T15:32:15.665Z,62.91
2024-02-21T15:35:18.526Z,62.91
2024-02-21T15:38:21.488Z,63.09
2024-02-21T15:41:23.754Z,63.56
2024-02-21T15:44:26.305Z,63.36
2024-02-21T15:47:29.649Z,63.16
2024-02-21T15:50:32.930Z,63.14
2024-02-21T15:53:35.712Z,63.09
2024-02-21T15:56:38.196Z,63.10
2024-02-21T15:59:41.036Z,63.10
2024-02-21T16:02:45.018Z,63.12
2024-02-21T16:05:47.407Z,62.99
2024-02-21T16:08:51.664Z,63.22
2024-02-21T16:11:54.310Z,63.31
2024-02-21T16:14:57.005Z,63.50
2024-02-21T16:18:00.127Z,63.69
2024-02-21T16:21:03.881Z,63.91
2024-02-21T16:24:07.204Z,64.08
2024-02-21T16:27:12.731Z,63.74
2024-02-21T16:30:16.062Z,63.89
2024-02-21T16:33:18.965Z,64.17
2024-02-21T16:36:25.796Z,64.07
2024-02-21T16:39:29.545Z,64.27
2024-02-21T16:42:32.659Z,64.02
2024-02-21T16:45:35.694Z,63.91
2024-02-21T16:48:37.918Z,64.18
2024-02-21T16:51:40.531Z,64.49
2024-02-21T16:54:42.888Z,64.05
2024-02-21T16:57:45.750Z,64.16
2024-02-21T17:00:49.737Z,64.03
2024-02-21T17:03:53.523Z,64.39
2024-02-21T17:06:57.396Z,64.08
2024-02-21T17:10:00.499Z,64.18
2024-02-21T17:13:06.062Z,64.61
2024-02-21T17:16:10.772Z,64.23
2024-02-21T17:19:13.329Z,64.56
2024-02-21T17:22:16.049Z,65.12
2024-02-21T17:25:19.044Z,65.56
2024-02-21T17:28:22.005Z,65.14
2024-02-21T17:31:24.281Z,65.26
2024-02-21T17:34:27.047Z,64.77
2024-02-21T17:37:29.469Z,64.91
2024-02-21T17:40:33.128Z,64.69
2024-02-21T17:43:35.810Z,64.77
2024-02-21T17:46:45.139Z,64.95
2024-02-21T17:49:48.519Z,65.18
2024-02-21T17:52:51.700Z,65.12
2024-02-21T17:55:56.668Z,65.64
2024-02-21T17:58:59.591Z,65.55
2024-02-21T18:02:01.982Z,65.26
2024-02-21T18:05:05.749Z,65.89
2024-02-21T18:08:10.941Z,65.86
2024-02-21T18:11:14.354Z,66.60
2024-02-21T18:14:19.031Z,66.36
2024-02-21T18:17:21.680Z,66.40
2024-02-21T18:20:25.737Z,66.72
2024-02-21T18:23:31.064Z,65.87
2024-02-21T18:26:33.729Z,66.59
2024-02-21T18:29:39.883Z,66.60
2024-02-21T18:32:43.406Z,66.78
2024-02-21T18:35:46.420Z,67.37
2024-02-21T18:38:48.679Z,67.31
2024-02-21T18:41:51.606Z,66.98
2024-02-21T18:44:55.833Z,67.01
2024-02-21T18:47:58.511Z,67.01
2024-02-21T18:51:01.198Z,66.85
2024-02-21T18:54:05.436Z,67.37
2024-02-21T18:57:07.637Z,66.94
2024-02-21T19:00:14.508Z,66.44
2024-02-21T19:03:16.693Z,66.65
2024-02-21T19:06:20.834Z,66.36
2024-02-21T19:09:24.807Z,67.15
2024-02-21T19:12:32.607Z,67.46
2024-02-21T19:15:36.620Z,67.77
2024-02-21T19:18:40.127Z,67.74
2024-02-21T19:21:43.835Z,67.82
2024-02-21T19:24:46.687Z,67.81
2024-02-21T19:27:49.147Z,68.04
2024-02-21T19:30:52.313Z,67.88
2024-02-21T19:33:56.548Z,67.99
2024-02-21T19:36:59.447Z,68.15
2024-02-21T19:40:03.602Z,69.08
2024-02-21T19:43:06.663Z,68.63
2024-02-21T19:46:11.943Z,68.69
2024-02-21T19:49:14.814Z,69.21
2024-02-21T19:52:17.194Z,68.96
2024-02-21T19:55:19.940Z,68.58
2024-02-21T19:58:22.097Z,68.53
2024-02-21T20:01:24.783Z,68.01
2024-02-21T20:04:27.145Z,67.96
2024-02-21T20:07:29.852Z,68.42
2024-02-21T20:10:32.201Z,68.63
2024-02-21T20:13:36.545Z,69.33
2024-02-21T20:16:39.004Z,67.69
2024-02-21T20:19:41.711Z,67.47
2024-02-21T20:22:43.948Z,68.62
2024-02-21T20:25:46.989Z,68.23
2024-02-21T20:28:49.595Z,68.71
2024-02-21T20:31:52.432Z,69.06
2024-02-21T20:34:54.833Z,69.14
2024-02-21T20:37:57.466Z,67.95
2024-02-21T20:40:59.854Z,68.06
2024-02-21T20:44:02.499Z,67.42
2024-02-21T20:47:05.006Z,68.15
2024-02-21T20:50:07.912Z,68.01
2024-02-21T20:53:10.309Z,68.37
2024-02-21T20:56:13.506Z,69.20
2024-02-21T20:59:16.289Z,68.09
2024-02-21T21:02:19.279Z,67.78
2024-02-21T21:05:22.007Z,67.27
2024-02-21T21:08:24.934Z,67.60
2024-02-21T21:11:35.300Z,67.75
2024-02-21T21:14:41.362Z,67.71
2024-02-21T21:17:43.851Z,67.78
2024-02-21T21:20:46.671Z,68.75
2024-02-21T21:23:48.817Z,69.18
2024-02-21T21:26:52.314Z,67.99
2024-02-21T21:29:54.555Z,67.31
2024-02-21T21:32:58.991Z,67.85
2024-02-21T21:36:02.907Z,67.63
2024-02-21T21:39:08.621Z,67.93
2024-02-21T21:42:11.239Z,68.00
2024-02-21T21:45:14.737Z,68.09
2024-02-21T21:48:17.370Z,67.11
2024-02-21T21:51:21.084Z,67.11
2024-02-21T21:54:23.580Z,66.97
2024-02-21T21:57:26.031Z,66.98
2024-02-21T22:00:28.757Z,66.83
2024-02-21T22:03:31.394Z,67.03
2024-02-21T22:06:33.784Z,66.99
2024-02-21T22:09:36.624Z,66.61
2024-02-21T22:12:39.000Z,66.64
2024-02-21T22:15:42.472Z,66.79
2024-02-21T22:18:44.746Z,66.88
2024-02-21T22:21:47.952Z,66.77
2024-02-21T22:24:51.640Z,66.95
2024-02-21T22:27:54.390Z,66.76
2024-02-21T22:30:56.714Z,67.79
2024-02-21T22:33:59.551Z,66.95
2024-02-21T22:37:02.139Z,66.62
2024-02-21T22:40:05.721Z,66.29
2024-02-21T22:43:09.936Z,66.65
2024-02-21T22:46:12.512Z,66.33
2024-02-21T22:49:15.147Z,66.40
2024-02-21T22:52:18.476Z,66.71
2024-02-21T22:55:20.618Z,66.62
2024-02-21T22:58:23.261Z,66.43
2024-02-21T23:01:26.769Z,66.49
2024-02-21T23:04:29.656Z,66.40
2024-02-21T23:07:32.859Z,66.45
2024-02-21T23:10:36.095Z,66.47
2024-02-21T23:13:38.987Z,66.73
2024-02-21T23:16:41.575Z,66.60
2024-02-21T23:19:44.707Z,66.67
2024-02-21T23:22:47.612Z,66.66
2024-02-21T23:25:49.929Z,66.79
2024-02-21T23:28:52.828Z,66.64
2024-02-21T23:31:55.387Z,66.77
2024-02-21T23:35:00.197Z,66.63
2024-02-21T23:38:06.777Z,66.74
2024-02-21T23:41:09.604Z,66.62
2024-02-21T23:44:12.970Z,66.56
2024-02-21T23:47:15.935Z,66.52
2024-02-21T23:50:18.146Z,66.31
2024-02-21T23:53:21.044Z,66.29
2024-02-21T23:56:23.226Z,66.32
2024-02-21T23:59:25.689Z,66.38
